Impacts TAF Board
For situational awareness. Not to be used for flight planning purposes.
IDs:

KMEM - Memphis Intl, TN, US

Issued at 2059 UTC 15 Oct 2018
Updated at 2140 UTC 15 Oct 2018
Potential Impact None Slight Moderate High
Time2115Z 15/22Z 15/23Z 16/00Z 16/01Z 16/02Z 16/03Z 16/04Z 16/05Z 16/06Z 16/07Z 16/08Z 16/09Z 16/10Z>>
Type OBS PRVL PRVL PRVL PRVL PRVL PRVL PRVL PRVL PRVL PRVL PRVL PRVL PRVL
VIS 10 >6 >6 >6 >6 >6 >6 >6 >6 >6 >6 >6 >6 >6
CIG 9 15 15 15 15 15 25 25 25 40 40 40 40 40
Cover OVC OVC OVC OVC OVC OVC OVC OVC OVC OVC OVC OVC OVC OVC
FltCat IFR MVFR MVFR MVFR MVFR MVFR MVFR MVFR MVFR VFR VFR VFR VFR VFR
WX -- VCSH VCSH VCSH VCSH VCSH -- -- -- -- -- -- -- --
WDir 10 10 10 10 10 10 30 30 30 30 30 30 30 30
WSpd 14 12 12 12 12 12 10 10 10 10 10 10 10 10
WGst 20 -- -- -- -- -- -- -- -- -- -- -- -- --
Raw TAF
KMEM 152059Z 1521/1624 01012KT P6SM VCSH OVC015
  FM160300 03010KT P6SM OVC025
  FM160600 03010KT P6SM SCT025 OVC040
  FM161500 03006KT P6SM VCSH OVC050


Raw METAR
KMEM 152115Z 01014G20KT 10SM OVC009 12/09 A3024 RMK AO2 T01170094 $
KMEM 152054Z 36011G19KT 10SM OVC010 11/10 A3024 RMK AO2 SLP239 T01110100 53016 $
KMEM 151954Z 35012KT 10SM OVC011 13/11 A3022 RMK AO2 SLP230 T01280111 $
KMEM 151854Z 01013KT 10SM OVC010 14/12 A3018 RMK AO2 SLP219 CIG 008V012 T01390117 $

METAR Board
Radar Display
Forecast Discussion
For situational awareness. Not to be used for flight planning purposes.